Time;durP1;ratioP1;P1;durP2;ratioP2;P2;SDS_P1;SDS_P2;PMS_P1;PMS_P2;Temp;Humidity;BMP_temperature;BMP_pressure;BME280_temperature;BME280_humidity;BME280_pressure;Samples;Min_cycle;Max_cycle;Signal;HPM_P1;HPM_P2
2021/03/24 00:00:36;;;;;;;6.53;1.23;;;9.50;57.00;;;;;;4929998;28;20457;-79
2021/03/24 00:03:02;;;;;;;4.25;1.63;;;9.40;57.00;;;;;;4928661;29;20051;-78
2021/03/24 00:05:31;;;;;;;6.05;1.58;;;9.40;57.00;;;;;;4941186;29;20048;-80
2021/03/24 00:07:58;;;;;;;2.22;1.08;;;9.30;57.00;;;;;;4922043;29;20477;-78
2021/03/24 00:10:24;;;;;;;3.25;1.60;;;9.30;57.20;;;;;;4932893;29;20032;-79
2021/03/24 00:12:54;;;;;;;4.47;1.80;;;9.20;57.20;;;;;;4931616;29;20043;-78
2021/03/24 00:15:20;;;;;;;2.28;1.33;;;9.20;57.30;;;;;;4939155;28;20050;-79
2021/03/24 00:17:46;;;;;;;1.60;0.70;;;9.20;57.40;;;;;;4914155;29;20102;-79
2021/03/24 00:20:13;;;;;;;5.80;2.13;;;9.10;57.40;;;;;;4903834;29;20036;-79
2021/03/24 00:22:39;;;;;;;5.65;1.58;;;9.00;57.50;;;;;;4903591;29;20028;-79
2021/03/24 00:25:06;;;;;;;4.90;1.95;;;9.00;57.60;;;;;;4932142;29;20035;-79
2021/03/24 00:27:32;;;;;;;9.35;2.40;;;9.00;57.60;;;;;;4930158;29;20488;-79
2021/03/24 00:29:58;;;;;;;6.07;1.65;;;9.00;57.70;;;;;;4928636;29;20030;-80
2021/03/24 00:32:24;;;;;;;1.65;0.93;;;8.90;57.70;;;;;;4925064;29;20036;-78
2021/03/24 00:34:50;;;;;;;4.75;2.20;;;8.90;57.70;;;;;;4892912;29;20035;-78
2021/03/24 00:37:17;;;;;;;12.68;2.75;;;8.90;57.80;;;;;;4930678;29;20032;-81
2021/03/24 00:39:43;;;;;;;8.98;1.73;;;8.80;57.80;;;;;;4943630;29;20047;-79
2021/03/24 00:42:09;;;;;;;2.72;1.10;;;8.80;57.90;;;;;;4922652;29;20393;-78
2021/03/24 00:44:36;;;;;;;2.78;0.93;;;8.80;58.20;;;;;;4934552;29;20101;-78
2021/03/24 00:47:02;;;;;;;1.95;0.93;;;8.70;58.30;;;;;;4928851;28;20036;-80
2021/03/24 00:49:28;;;;;;;4.40;1.38;;;8.60;58.40;;;;;;4931534;29;20043;-80
2021/03/24 00:51:54;;;;;;;4.25;1.42;;;8.50;58.30;;;;;;4947719;29;20035;-81
2021/03/24 00:54:20;;;;;;;4.07;2.05;;;8.50;58.40;;;;;;4922746;29;20036;-80
2021/03/24 00:56:46;;;;;;;2.13;1.25;;;8.40;58.40;;;;;;4913575;29;20477;-80
2021/03/24 00:59:14;;;;;;;4.18;1.48;;;8.40;58.50;;;;;;4906810;29;20035;-81
2021/03/24 01:01:40;;;;;;;9.32;2.17;;;8.40;58.50;;;;;;4943683;28;20032;-80
2021/03/24 01:04:07;;;;;;;4.90;1.13;;;8.40;58.60;;;;;;4948065;29;20043;-80
2021/03/24 01:06:33;;;;;;;1.80;1.02;;;8.30;58.70;;;;;;4938480;29;20405;-80
2021/03/24 01:08:59;;;;;;;1.10;0.65;;;8.20;58.80;;;;;;4928885;29;20047;-79
2021/03/24 01:11:26;;;;;;;1.40;0.70;;;8.10;58.80;;;;;;4940424;29;20491;-80
2021/03/24 01:13:52;;;;;;;2.55;1.17;;;8.10;58.90;;;;;;4910561;29;20381;-80
2021/03/24 01:16:18;;;;;;;3.65;1.65;;;8.00;59.00;;;;;;4945062;28;20025;-79
2021/03/24 01:18:44;;;;;;;4.75;2.00;;;8.00;59.00;;;;;;4945965;29;20051;-80
2021/03/24 01:21:10;;;;;;;5.50;1.25;;;8.00;59.00;;;;;;4928614;29;20389;-79
2021/03/24 01:23:36;;;;;;;2.90;1.33;;;8.00;59.00;;;;;;4938835;29;20036;-81
2021/03/24 01:26:02;;;;;;;3.28;1.27;;;7.90;59.00;;;;;;4913521;29;20805;-80
2021/03/24 01:28:29;;;;;;;2.05;0.93;;;8.00;59.00;;;;;;4943629;29;20098;-80
2021/03/24 01:30:56;;;;;;;2.55;1.17;;;8.00;59.00;;;;;;4928926;28;20032;-80
2021/03/24 01:33:23;;;;;;;4.00;1.83;;;8.00;59.00;;;;;;4928185;29;20433;-79
2021/03/24 01:35:49;;;;;;;3.60;1.35;;;8.00;59.10;;;;;;4943875;29;20035;-80
2021/03/24 01:38:15;;;;;;;1.95;1.08;;;8.00;59.00;;;;;;4937450;29;20408;-79
2021/03/24 01:40:45;;;;;;;6.15;2.30;;;8.00;59.10;;;;;;4913791;29;20032;-80
2021/03/24 01:43:28;;;;;;;3.65;1.85;;;8.00;59.10;;;;;;4931856;29;20028;-79
2021/03/24 01:46:15;;;;;;;4.00;1.73;;;8.00;59.10;;;;;;4944485;28;20032;-79
2021/03/24 01:48:41;;;;;;;2.63;1.90;;;8.10;59.10;;;;;;4931418;29;20039;-79
2021/03/24 01:51:07;;;;;;;4.20;1.63;;;8.10;59.00;;;;;;4928278;29;20036;-79
2021/03/24 01:53:34;;;;;;;5.35;1.83;;;8.00;59.00;;;;;;4913297;29;20496;-79
2021/03/24 01:56:01;;;;;;;3.95;2.30;;;8.00;59.00;;;;;;4920710;29;20523;-79
2021/03/24 01:58:27;;;;;;;5.57;2.25;;;8.00;59.10;;;;;;4930784;29;20412;-79
2021/03/24 02:00:53;;;;;;;3.25;2.22;;;8.00;59.10;;;;;;4946085;28;20040;-79
2021/03/24 02:03:25;;;;;;;19.80;2.85;;;8.00;59.20;;;;;;4937751;29;20046;-79
2021/03/24 02:05:51;;;;;;;2.72;1.73;;;8.00;59.20;;;;;;4925424;28;20063;-79
2021/03/24 02:08:24;;;;;;;4.88;1.67;;;7.90;59.20;;;;;;4936167;29;20042;-79
2021/03/24 02:11:11;;;;;;;3.35;1.83;;;7.90;59.30;;;;;;4934164;29;20063;-79
2021/03/24 02:14:07;;;;;;;9.43;2.42;;;7.90;59.20;;;;;;4936401;29;20041;-79
2021/03/24 02:16:35;;;;;;;2.97;1.35;;;7.80;59.20;;;;;;4952399;28;20047;-80
2021/03/24 02:19:03;;;;;;;5.45;2.50;;;7.80;59.30;;;;;;4937161;29;20079;-81
2021/03/24 02:21:34;;;;;;;3.78;1.48;;;7.80;59.30;;;;;;4956436;28;20032;-79
2021/03/24 02:24:03;;;;;;;2.03;1.42;;;7.70;59.40;;;;;;4935793;29;20673;-79
2021/03/24 02:26:38;;;;;;;6.25;1.55;;;7.70;59.50;;;;;;4949902;29;20024;-79
2021/03/24 02:29:05;;;;;;;7.40;1.92;;;7.60;59.50;;;;;;4959129;28;20027;-79
2021/03/24 02:31:31;;;;;;;5.15;2.30;;;7.60;59.50;;;;;;4939410;28;20036;-79
2021/03/24 02:33:59;;;;;;;3.05;1.70;;;7.60;59.60;;;;;;4953195;29;20031;-79
2021/03/24 02:36:25;;;;;;;5.68;2.45;;;7.50;59.60;;;;;;4950850;28;20055;-79
2021/03/24 02:38:54;;;;;;;2.95;1.58;;;7.50;59.60;;;;;;4943661;29;20046;-79
2021/03/24 02:41:20;;;;;;;6.22;3.63;;;7.50;59.70;;;;;;4943842;29;20020;-79
2021/03/24 02:43:46;;;;;;;2.75;1.70;;;7.50;59.70;;;;;;4940626;29;20039;-79
2021/03/24 02:46:13;;;;;;;4.72;1.60;;;7.50;59.70;;;;;;4954532;28;20039;-79
2021/03/24 02:48:40;;;;;;;3.78;1.95;;;7.40;59.80;;;;;;4948454;29;20035;-79
2021/03/24 02:51:18;;;;;;;3.47;1.80;;;7.40;59.70;;;;;;4944293;29;20381;-79
2021/03/24 02:53:44;;;;;;;5.55;1.85;;;7.40;59.80;;;;;;4960815;28;20039;-79
2021/03/24 02:56:10;;;;;;;5.57;2.40;;;7.40;59.80;;;;;;4950744;29;20031;-79
2021/03/24 02:58:37;;;;;;;4.85;2.40;;;7.40;59.80;;;;;;4919542;29;20056;-79
2021/03/24 03:01:12;;;;;;;3.85;2.15;;;7.40;59.80;;;;;;4956027;28;20046;-79
2021/03/24 03:03:39;;;;;;;3.78;1.65;;;7.40;59.80;;;;;;4930066;29;20027;-79
2021/03/24 03:06:07;;;;;;;3.15;1.48;;;7.40;59.90;;;;;;4945207;28;20048;-79
2021/03/24 03:09:07;;;;;;;4.90;2.13;;;7.30;59.80;;;;;;4940348;29;20052;-79
2021/03/24 03:11:39;;;;;;;3.30;1.70;;;7.30;59.90;;;;;;4948816;29;20051;-80
2021/03/24 03:14:06;;;;;;;6.93;2.15;;;7.30;59.90;;;;;;4925699;29;20389;-79
2021/03/24 03:16:47;;;;;;;4.43;1.90;;;7.30;60.00;;;;;;4936881;28;20031;-79
2021/03/24 03:19:18;;;;;;;5.53;2.63;;;7.20;60.00;;;;;;4968517;28;20404;-79
2021/03/24 03:21:55;;;;;;;4.93;2.50;;;7.20;60.10;;;;;;4950446;28;20023;-79
2021/03/24 03:24:22;;;;;;;5.30;2.40;;;7.10;60.10;;;;;;4946851;28;20124;-79
2021/03/24 03:26:49;;;;;;;6.65;2.13;;;7.10;60.10;;;;;;4944622;29;20032;-80
2021/03/24 03:29:17;;;;;;;2.92;1.45;;;7.00;60.10;;;;;;4944849;29;20031;-79
2021/03/24 03:31:45;;;;;;;2.75;1.23;;;7.00;60.10;;;;;;4948660;28;20040;-79
2021/03/24 03:34:12;;;;;;;7.80;2.28;;;7.00;60.20;;;;;;4952380;28;20039;-79
2021/03/24 03:36:39;;;;;;;6.55;1.67;;;7.00;60.20;;;;;;4943057;28;20042;-79
2021/03/24 03:39:06;;;;;;;6.10;1.73;;;7.00;60.20;;;;;;4950138;28;20050;-79
2021/03/24 03:41:32;;;;;;;11.02;3.25;;;7.00;60.30;;;;;;4953694;28;20408;-80
2021/03/24 03:43:58;;;;;;;3.58;2.67;;;7.00;60.30;;;;;;4936886;29;20043;-79
2021/03/24 03:46:27;;;;;;;8.85;2.45;;;7.00;60.30;;;;;;4946351;28;20040;-80
2021/03/24 03:48:53;;;;;;;7.78;1.48;;;6.90;60.30;;;;;;4919862;29;20039;-79
2021/03/24 03:51:25;;;;;;;5.93;2.33;;;6.90;60.30;;;;;;4948413;29;20031;-79
2021/03/24 03:53:57;;;;;;;2.38;1.40;;;6.90;60.40;;;;;;4948305;29;20496;-79
2021/03/24 03:56:36;;;;;;;5.57;1.65;;;6.90;60.50;;;;;;4958820;28;20035;-79
2021/03/24 03:59:17;;;;;;;3.65;1.95;;;6.80;60.40;;;;;;4940427;29;20054;-79
2021/03/24 04:01:45;;;;;;;3.15;1.50;;;6.80;60.50;;;;;;4933861;29;20040;-80
2021/03/24 04:04:18;;;;;;;5.50;2.40;;;6.70;60.50;;;;;;4950455;29;20038;-79
2021/03/24 04:06:50;;;;;;;3.25;2.00;;;6.70;60.60;;;;;;4920734;29;20047;-79
2021/03/24 04:09:16;;;;;;;6.55;2.75;;;6.70;60.70;;;;;;4931162;29;20058;-79
2021/03/24 04:11:48;;;;;;;4.90;2.15;;;6.70;60.70;;;;;;4929287;29;20038;-79
2021/03/24 04:14:16;;;;;;;3.95;1.98;;;6.60;60.70;;;;;;4922970;29;20480;-79
2021/03/24 04:16:42;;;;;;;2.57;1.20;;;6.60;60.70;;;;;;4947129;28;20504;-79
2021/03/24 04:19:08;;;;;;;4.00;2.38;;;6.60;60.80;;;;;;4915684;29;20056;-79
2021/03/24 04:21:37;;;;;;;3.92;1.30;;;6.60;60.80;;;;;;4930700;29;20042;-79
2021/03/24 04:24:14;;;;;;;2.40;1.25;;;6.60;60.90;;;;;;4917137;29;20052;-79
2021/03/24 04:26:45;;;;;;;2.90;1.55;;;6.60;60.90;;;;;;4927186;29;20019;-80
2021/03/24 04:29:37;;;;;;;5.07;1.40;;;6.50;60.90;;;;;;4919825;29;20383;-79
2021/03/24 04:32:04;;;;;;;7.35;2.53;;;6.50;61.00;;;;;;4916042;28;20031;-79
2021/03/24 04:34:30;;;;;;;5.07;2.28;;;6.50;60.90;;;;;;4928560;29;20048;-79
2021/03/24 04:37:17;;;;;;;3.53;1.15;;;6.50;61.00;;;;;;4946145;29;20039;-79
2021/03/24 04:39:52;;;;;;;5.50;2.25;;;6.50;61.10;;;;;;4931442;29;20063;-79
2021/03/24 04:42:24;;;;;;;3.15;1.55;;;6.50;61.20;;;;;;4915411;29;20028;-79
2021/03/24 04:44:52;;;;;;;2.03;1.05;;;6.40;61.10;;;;;;4922418;29;20037;-80
2021/03/24 04:47:32;;;;;;;2.92;1.60;;;6.40;61.10;;;;;;4916134;29;20036;-79
2021/03/24 04:50:06;;;;;;;2.47;1.48;;;6.40;61.10;;;;;;4929576;29;20044;-78
2021/03/24 04:52:33;;;;;;;7.38;1.70;;;6.40;61.10;;;;;;4945427;29;20028;-79
2021/03/24 04:55:08;;;;;;;3.50;2.00;;;6.40;61.10;;;;;;4914769;29;20051;-79
2021/03/24 04:57:34;;;;;;;2.80;1.10;;;6.40;61.10;;;;;;4930900;29;20031;-81
2021/03/24 05:00:25;;;;;;;5.80;1.80;;;6.30;61.10;;;;;;4920733;29;20044;-79
2021/03/24 05:02:52;;;;;;;;;;;6.30;61.30;;;;;;4927674;29;20051;-79
2021/03/24 05:05:22;;;;;;;3.45;1.73;;;6.30;61.20;;;;;;4930881;29;19918;-79
2021/03/24 05:08:14;;;;;;;8.73;1.37;;;6.30;61.10;;;;;;4941614;28;20043;-79
2021/03/24 05:10:40;;;;;;;2.45;0.95;;;6.20;61.30;;;;;;4894708;29;20521;-80
2021/03/24 05:13:41;;;;;;;5.78;2.28;;;6.20;61.30;;;;;;4879275;29;20055;-79
2021/03/24 05:16:21;;;;;;;1.65;1.10;;;6.20;61.30;;;;;;4860688;29;20052;-83
2021/03/24 05:18:52;;;;;;;1.65;1.17;;;6.20;61.40;;;;;;4871722;29;20538;-79
2021/03/24 05:21:47;;;;;;;7.70;2.05;;;6.10;61.30;;;;;;4872333;29;20448;-79
2021/03/24 05:24:13;;;;;;;3.87;0.97;;;6.10;61.40;;;;;;4875670;29;20037;-80
2021/03/24 05:26:42;;;;;;;4.07;2.00;;;6.10;61.40;;;;;;4872953;29;20069;-79
2021/03/24 05:29:13;;;;;;;3.67;1.20;;;6.10;61.50;;;;;;4860568;29;20045;-80
2021/03/24 05:31:41;;;;;;;3.20;1.55;;;6.10;61.50;;;;;;4871467;29;20041;-79
2021/03/24 05:34:17;;;;;;;2.93;1.43;;;6.10;61.50;;;;;;4842833;29;20044;-79
2021/03/24 05:36:45;;;;;;;3.87;1.77;;;6.00;61.50;;;;;;4873132;29;20131;-80
2021/03/24 05:39:19;;;;;;;5.93;2.23;;;6.00;61.60;;;;;;4876194;29;20481;-79
2021/03/24 05:41:56;;;;;;;7.07;3.20;;;6.00;61.70;;;;;;4871623;29;20052;-79
2021/03/24 05:45:00;;;;;;;5.22;2.15;;;6.00;61.70;;;;;;4875711;29;20033;-79
2021/03/24 05:47:54;;;;;;;4.63;1.27;;;5.90;61.80;;;;;;4839366;29;20042;-79
2021/03/24 05:50:23;;;;;;;1.60;0.47;;;5.90;62.60;;;;;;4853806;29;20041;-79
2021/03/24 05:53:04;;;;;;;1.97;1.00;;;5.90;61.80;;;;;;4851005;29;20045;-79
2021/03/24 05:55:37;;;;;;;4.07;1.85;;;5.80;61.80;;;;;;4861006;29;20038;-79
2021/03/24 05:58:05;;;;;;;1.53;1.23;;;5.80;61.80;;;;;;4860798;29;20136;-80
2021/03/24 06:00:33;;;;;;;3.10;1.53;;;5.80;61.80;;;;;;4876032;29;20057;-79
2021/03/24 06:03:04;;;;;;;3.67;2.03;;;5.80;61.80;;;;;;4860706;29;20037;-79
2021/03/24 06:05:39;;;;;;;3.80;1.80;;;5.80;62.00;;;;;;4860140;29;20053;-79
2021/03/24 06:08:31;;;;;;;5.70;1.83;;;5.70;62.10;;;;;;4860594;29;20041;-79
2021/03/24 06:10:57;;;;;;;1.90;0.80;;;5.70;62.10;;;;;;4860371;29;20056;-79
2021/03/24 06:13:53;;;;;;;7.50;1.40;;;5.70;62.10;;;;;;4875977;29;20029;-78
2021/03/24 06:16:48;;;;;;;3.42;1.50;;;5.70;62.10;;;;;;4860128;29;20092;-79
2021/03/24 06:19:23;;;;;;;6.13;2.00;;;5.80;62.10;;;;;;4861323;29;20049;-79
2021/03/24 06:22:08;;;;;;;2.53;1.10;;;5.80;61.90;;;;;;4860367;29;20042;-79
2021/03/24 06:24:47;;;;;;;10.23;0.87;;;5.80;61.90;;;;;;4924945;29;20054;-80
2021/03/24 06:27:40;;;;;;;3.67;1.35;;;5.80;61.90;;;;;;4946566;29;20031;-80
2021/03/24 06:30:33;;;;;;;4.32;1.77;;;5.80;61.80;;;;;;4911919;29;20052;-80
2021/03/24 06:33:06;;;;;;;1.43;0.97;;;5.90;61.90;;;;;;4911766;29;20043;-79
2021/03/24 06:36:30;;;;;;;2.95;1.83;;;5.90;61.80;;;;;;4896053;29;20036;-79
2021/03/24 06:39:02;;;;;;;3.63;1.03;;;6.00;61.90;;;;;;4855549;29;20065;-79
2021/03/24 06:41:43;;;;;;;2.20;1.60;;;6.00;61.80;;;;;;4856046;29;20029;-80
2021/03/24 06:44:18;;;;;;;0.73;0.55;;;6.20;62.10;;;;;;4840655;29;20127;-78
2021/03/24 06:47:03;;;;;;;4.05;1.42;;;6.50;61.20;;;;;;4843354;29;20045;-79
2021/03/24 06:49:31;;;;;;;1.25;0.70;;;7.00;60.50;;;;;;4845215;29;20045;-79
2021/03/24 06:52:16;;;;;;;1.85;1.10;;;7.40;59.70;;;;;;4858902;29;20053;-79
2021/03/24 06:54:56;;;;;;;12.57;1.92;;;7.80;59.10;;;;;;4856995;29;20050;-79
2021/03/24 06:57:52;;;;;;;3.50;1.53;;;8.20;58.70;;;;;;4845813;29;20053;-79
2021/03/24 07:00:27;;;;;;;1.80;0.80;;;8.50;58.30;;;;;;4855194;29;20062;-79
2021/03/24 07:03:20;;;;;;;3.38;1.38;;;8.80;57.90;;;;;;4855565;29;20042;-79
2021/03/24 07:06:12;;;;;;;5.95;1.92;;;9.00;57.70;;;;;;4855430;29;20034;-79
2021/03/24 07:08:57;;;;;;;13.75;1.25;;;9.20;57.70;;;;;;4870938;29;20044;-78
2021/03/24 07:11:40;;;;;;;3.40;1.45;;;9.30;57.70;;;;;;4890143;29;20512;-80
2021/03/24 07:14:24;;;;;;;2.63;1.42;;;9.50;57.70;;;;;;4874545;29;20041;-78
2021/03/24 07:17:02;;;;;;;8.05;2.10;;;9.70;57.50;;;;;;4956510;28;20032;-80
2021/03/24 07:19:45;;;;;;;6.18;1.85;;;10.00;57.30;;;;;;4957318;28;20050;-79
2021/03/24 07:22:18;;;;;;;9.18;1.45;;;10.30;57.10;;;;;;4972822;28;20034;-79
2021/03/24 07:25:16;;;;;;;4.13;1.33;;;10.50;56.90;;;;;;4951861;28;20477;-79
2021/03/24 07:28:15;;;;;;;3.30;0.82;;;10.70;56.80;;;;;;4954545;28;20507;-80
2021/03/24 07:30:59;;;;;;;4.57;1.13;;;11.00;56.70;;;;;;4915493;29;20040;-79
2021/03/24 07:33:30;;;;;;;7.05;1.85;;;11.10;56.50;;;;;;4914196;29;20044;-79
2021/03/24 07:36:15;;;;;;;;;;;11.30;56.60;;;;;;4902873;29;20184;-79
2021/03/24 07:38:56;;;;;;;3.67;0.90;;;11.50;56.50;;;;;;4900558;29;20497;-79
2021/03/24 07:41:46;;;;;;;4.63;1.63;;;11.60;56.20;;;;;;4906836;29;20040;-79
2021/03/24 07:44:32;;;;;;;3.30;1.58;;;11.80;56.20;;;;;;4912729;29;20062;-79
2021/03/24 07:47:32;;;;;;;2.80;0.95;;;12.00;56.10;;;;;;4896321;29;20049;-79
2021/03/24 07:50:08;;;;;;;5.53;1.25;;;12.20;56.00;;;;;;4899694;29;20073;-79
2021/03/24 07:52:52;;;;;;;1.75;0.68;;;12.30;55.90;;;;;;4913288;29;20060;-79
2021/03/24 07:55:41;;;;;;;1.63;0.90;;;12.50;55.90;;;;;;4915166;29;20043;-79
2021/03/24 07:58:25;;;;;;;3.45;1.55;;;12.60;55.90;;;;;;4916076;29;20047;-80
2021/03/24 08:00:53;;;;;;;5.70;1.10;;;12.80;55.80;;;;;;4913121;29;20037;-79
2021/03/24 08:03:20;;;;;;;4.13;1.27;;;12.90;55.70;;;;;;4910384;29;20040;-79
2021/03/24 08:06:18;;;;;;;4.78;1.48;;;13.10;55.70;;;;;;4909467;29;20035;-80
2021/03/24 08:08:44;;;;;;;4.70;1.67;;;13.20;55.70;;;;;;4911102;29;20040;-80
2021/03/24 08:11:24;;;;;;;6.72;1.50;;;13.40;55.50;;;;;;4898233;29;20043;-80
2021/03/24 08:14:23;;;;;;;7.13;1.83;;;13.60;55.60;;;;;;4894515;29;20048;-80
2021/03/24 08:17:15;;;;;;;3.72;0.90;;;13.70;55.40;;;;;;4895531;29;20047;-80
2021/03/24 08:20:13;;;;;;;3.35;0.95;;;13.90;55.40;;;;;;4892217;29;20528;-80
2021/03/24 08:22:55;;;;;;;3.78;1.38;;;14.00;55.20;;;;;;4910304;29;20149;-81
2021/03/24 08:26:00;;;;;;;2.38;0.98;;;14.20;55.10;;;;;;4912850;28;20032;-82
2021/03/24 08:28:29;;;;;;;4.32;1.10;;;14.50;54.90;;;;;;4914053;29;20032;-80
2021/03/24 08:30:58;;;;;;;8.77;1.90;;;14.70;54.70;;;;;;4913685;29;20063;-80
2021/03/24 08:33:56;;;;;;;4.65;1.83;;;14.80;54.60;;;;;;4895803;29;20044;-80
2021/03/24 08:36:55;;;;;;;5.15;1.35;;;14.90;54.70;;;;;;4897484;29;20052;-80
2021/03/24 08:39:46;;;;;;;5.78;1.60;;;14.90;54.60;;;;;;4900394;29;20055;-80
2021/03/24 08:42:36;;;;;;;10.90;1.08;;;15.00;54.70;;;;;;4902035;29;20144;-80
2021/03/24 08:45:12;;;;;;;4.83;1.37;;;15.10;54.70;;;;;;4920234;28;20474;-80
2021/03/24 08:47:41;;;;;;;4.43;1.67;;;15.20;54.70;;;;;;4957038;28;20068;-80
2021/03/24 08:50:29;;;;;;;6.40;1.40;;;15.30;54.50;;;;;;4962150;28;20034;-80
2021/03/24 08:53:06;;;;;;;8.82;1.40;;;15.50;54.30;;;;;;4950767;28;20023;-80
2021/03/24 08:55:39;;;;;;;6.22;1.92;;;15.60;54.30;;;;;;4967951;28;20055;-80
2021/03/24 08:58:16;;;;;;;2.05;0.82;;;15.60;54.30;;;;;;4970422;28;20023;-80
2021/03/24 09:01:03;;;;;;;4.13;0.77;;;15.70;54.20;;;;;;4955703;28;20047;-80
2021/03/24 09:03:47;;;;;;;5.00;1.80;;;15.90;54.20;;;;;;4959743;28;20035;-80
2021/03/24 09:06:35;;;;;;;2.63;1.25;;;16.10;53.80;;;;;;4972999;28;20046;-81
2021/03/24 09:09:28;;;;;;;6.55;1.63;;;16.40;53.70;;;;;;4966375;28;20030;-80
2021/03/24 09:12:15;;;;;;;2.50;1.33;;;16.70;53.30;;;;;;4960986;28;20042;-80
2021/03/24 09:15:04;;;;;;;3.75;1.65;;;16.90;53.00;;;;;;4959993;28;20507;-80
2021/03/24 09:17:34;;;;;;;5.32;1.70;;;17.20;52.80;;;;;;4961958;28;20385;-80
2021/03/24 09:20:06;;;;;;;2.05;0.68;;;17.40;52.70;;;;;;4957533;28;20054;-80
2021/03/24 09:23:13;;;;;;;9.18;1.88;;;17.40;52.60;;;;;;4969027;28;20024;-80
2021/03/24 09:26:13;;;;;;;7.35;1.70;;;17.60;52.60;;;;;;4890964;29;20048;-80
2021/03/24 09:28:57;;;;;;;11.15;1.75;;;17.70;52.40;;;;;;4879659;29;20045;-81
2021/03/24 09:31:44;;;;;;;4.65;1.75;;;17.90;52.30;;;;;;4848997;29;20184;-80
2021/03/24 09:34:47;;;;;;;11.23;1.08;;;18.10;52.20;;;;;;4880156;29;20033;-80
2021/03/24 09:37:25;;;;;;;5.30;1.05;;;18.20;51.90;;;;;;4879480;29;20025;-81
2021/03/24 09:39:53;;;;;;;4.85;1.23;;;18.40;51.80;;;;;;4889477;29;20041;-80
2021/03/24 09:42:21;;;;;;;1.95;0.68;;;18.60;51.60;;;;;;4859647;29;20037;-80
2021/03/24 09:44:54;;;;;;;3.15;0.75;;;18.80;52.00;;;;;;4871431;29;20037;-81
2021/03/24 09:47:44;;;;;;;2.70;1.15;;;18.90;51.20;;;;;;4884024;29;20041;-80
2021/03/24 09:50:19;;;;;;;4.82;1.27;;;18.90;51.10;;;;;;4890424;29;20036;-80
2021/03/24 09:53:00;;;;;;;4.43;1.40;;;18.90;51.10;;;;;;4890283;29;20033;-82
2021/03/24 09:55:35;;;;;;;5.78;1.00;;;18.90;51.20;;;;;;4891225;29;20044;-80
2021/03/24 09:58:22;;;;;;;6.22;1.30;;;18.90;51.20;;;;;;4893248;29;20065;-80
2021/03/24 10:01:24;;;;;;;3.58;0.38;;;19.10;51.10;;;;;;4914285;28;20407;-80
2021/03/24 10:04:09;;;;;;;1.92;1.02;;;19.10;50.80;;;;;;4909675;29;20047;-80
2021/03/24 10:06:57;;;;;;;2.53;0.73;;;19.00;50.90;;;;;;4883175;29;20052;-81
2021/03/24 10:09:42;;;;;;;2.67;0.70;;;19.00;51.00;;;;;;4908316;29;20049;-81
2021/03/24 10:12:41;;;;;;;1.67;0.57;;;19.00;51.00;;;;;;4901193;29;20132;-80
2021/03/24 10:15:07;;;;;;;2.97;0.70;;;19.10;50.90;;;;;;4894519;29;20044;-82
2021/03/24 10:18:05;;;;;;;1.80;0.63;;;19.10;50.80;;;;;;4907699;29;20035;-81
2021/03/24 10:20:51;;;;;;;1.58;0.40;;;19.10;50.60;;;;;;4856837;29;20471;-80
2021/03/24 10:23:25;;;;;;;2.28;0.38;;;19.20;50.60;;;;;;4841579;29;20041;-80
2021/03/24 10:25:58;;;;;;;1.30;0.50;;;19.30;50.40;;;;;;4839638;29;20038;-81
2021/03/24 10:28:38;;;;;;;3.25;0.70;;;19.40;50.30;;;;;;4853591;29;20495;-80
2021/03/24 10:31:13;;;;;;;1.08;0.25;;;19.50;50.10;;;;;;4840953;29;20038;-80
2021/03/24 10:33:49;;;;;;;3.28;0.75;;;19.60;50.00;;;;;;4829208;29;20048;-80
2021/03/24 10:36:20;;;;;;;2.00;0.63;;;19.60;49.80;;;;;;4845639;29;20423;-80
2021/03/24 10:39:11;;;;;;;3.03;1.02;;;19.50;50.00;;;;;;4857828;29;20085;-81
2021/03/24 10:41:37;;;;;;;6.35;1.00;;;19.40;49.90;;;;;;4911828;29;20048;-81
2021/03/24 10:44:05;;;;;;;4.13;1.15;;;19.40;50.60;;;;;;4912220;29;20188;-80
2021/03/24 10:47:20;;;;;;;3.28;0.73;;;19.50;50.00;;;;;;4914955;29;20044;-80
2021/03/24 10:50:10;;;;;;;4.18;0.50;;;19.70;49.60;;;;;;4890209;29;20124;-80
2021/03/24 10:52:43;;;;;;;1.60;0.65;;;19.90;49.20;;;;;;4913080;29;20036;-80
2021/03/24 10:55:19;;;;;;;14.73;0.60;;;20.10;48.90;;;;;;4874389;28;20522;-81
2021/03/24 10:57:48;;;;;;;3.33;0.90;;;20.30;48.60;;;;;;4942372;28;20023;-80
2021/03/24 11:00:17;;;;;;;2.67;0.43;;;20.40;48.40;;;;;;4971135;28;20050;-81
2021/03/24 11:02:53;;;;;;;2.22;0.38;;;20.50;48.30;;;;;;4968578;28;20081;-81
2021/03/24 11:05:29;;;;;;;4.53;0.63;;;20.60;48.20;;;;;;4968515;28;20031;-83
2021/03/24 11:08:20;;;;;;;2.08;0.68;;;20.60;47.80;;;;;;4949683;28;20039;-80
2021/03/24 11:10:55;;;;;;;;;;;20.30;47.90;;;;;;4950006;28;20046;-80
2021/03/24 11:13:30;;;;;;;1.25;0.43;;;20.10;48.90;;;;;;4958995;28;20379;-81
2021/03/24 11:15:56;;;;;;;2.60;0.50;;;19.90;48.40;;;;;;4937581;28;20050;-80
2021/03/24 11:18:29;;;;;;;2.85;0.70;;;19.90;48.50;;;;;;4952271;28;20034;-80
2021/03/24 11:20:58;;;;;;;1.55;0.40;;;20.00;48.30;;;;;;4949111;29;20043;-80
2021/03/24 11:23:42;;;;;;;3.15;0.60;;;20.20;48.00;;;;;;4943114;29;20019;-81
2021/03/24 11:26:35;;;;;;;2.35;0.38;;;20.40;47.70;;;;;;4929437;28;20046;-81
2021/03/24 11:29:04;;;;;;;1.65;0.32;;;20.50;47.60;;;;;;4967981;28;20038;-85
2021/03/24 11:31:54;;;;;;;1.48;0.60;;;20.60;47.40;;;;;;4949224;28;20040;-81
2021/03/24 11:34:31;;;;;;;1.08;0.20;;;20.60;47.20;;;;;;4971001;28;20038;-81
2021/03/24 11:37:00;;;;;;;1.10;0.28;;;20.70;47.00;;;;;;4970042;28;20035;-81
2021/03/24 11:39:31;;;;;;;4.88;0.50;;;20.60;47.00;;;;;;4952299;28;20030;-81
2021/03/24 11:42:26;;;;;;;1.23;0.55;;;20.60;47.00;;;;;;4964517;28;20037;-82
2021/03/24 11:44:53;;;;;;;1.00;0.30;;;20.70;46.80;;;;;;4951620;28;20035;-81
2021/03/24 11:47:28;;;;;;;1.70;0.30;;;20.80;46.50;;;;;;4954790;28;20038;-81
2021/03/24 11:50:08;;;;;;;3.95;0.20;;;20.70;46.20;;;;;;4953307;28;20030;-81
2021/03/24 11:53:07;;;;;;;1.00;0.30;;;20.60;46.40;;;;;;4965095;28;20027;-80
2021/03/24 11:55:58;;;;;;;2.45;0.63;;;20.60;46.30;;;;;;4956395;28;20046;-80
2021/03/24 11:58:49;;;;;;;2.13;0.77;;;20.70;46.30;;;;;;4954778;28;20042;-80
2021/03/24 12:01:45;;;;;;;0.73;0.15;;;20.60;46.20;;;;;;4971041;28;20059;-80
2021/03/24 12:04:32;;;;;;;4.35;0.82;;;20.70;46.10;;;;;;4956582;28;20041;-80
2021/03/24 12:07:04;;;;;;;0.45;0.30;;;20.90;46.00;;;;;;4953440;28;20050;-80
2021/03/24 12:09:31;;;;;;;1.83;0.50;;;21.10;45.90;;;;;;4969555;28;20038;-81
2021/03/24 12:12:10;;;;;;;0.68;0.28;;;21.20;45.70;;;;;;4947050;29;20029;-81
2021/03/24 12:14:37;;;;;;;1.13;0.20;;;21.20;45.40;;;;;;4964834;28;20041;-81
2021/03/24 12:17:05;;;;;;;1.48;0.38;;;21.20;45.50;;;;;;4943644;28;20519;-81
2021/03/24 12:19:37;;;;;;;1.23;0.32;;;21.30;45.50;;;;;;4948370;29;20043;-80
2021/03/24 12:22:23;;;;;;;1.85;0.32;;;21.20;45.30;;;;;;4970028;28;20035;-80
2021/03/24 12:24:58;;;;;;;3.63;0.25;;;21.10;45.50;;;;;;4973524;28;20027;-81
2021/03/24 12:27:25;;;;;;;0.70;0.30;;;21.10;45.70;;;;;;4956976;28;20041;-81
2021/03/24 12:30:04;;;;;;;0.30;0.13;;;21.20;45.60;;;;;;4944882;28;20045;-80
2021/03/24 12:32:32;;;;;;;0.57;0.13;;;21.30;45.50;;;;;;4943799;28;20043;-80
2021/03/24 12:34:59;;;;;;;5.82;0.50;;;21.30;45.40;;;;;;4959622;28;20034;-81
2021/03/24 12:37:28;;;;;;;1.13;0.28;;;21.40;45.40;;;;;;4964910;28;20373;-80
2021/03/24 12:40:23;;;;;;;2.45;0.88;;;21.50;45.30;;;;;;4951863;28;20376;-80
2021/03/24 12:42:50;;;;;;;2.83;0.73;;;21.50;45.30;;;;;;4951944;28;20035;-81
2021/03/24 12:45:32;;;;;;;1.58;0.40;;;21.60;45.20;;;;;;4956512;28;20038;-80
2021/03/24 12:48:12;;;;;;;0.95;0.55;;;21.60;45.20;;;;;;4959390;28;20480;-80
2021/03/24 12:50:49;;;;;;;3.03;0.22;;;21.50;45.20;;;;;;4948799;28;20050;-81
2021/03/24 12:53:33;;;;;;;5.30;1.48;;;21.50;45.30;;;;;;4946059;29;20032;-80
2021/03/24 12:56:29;;;;;;;0.47;0.10;;;21.40;45.50;;;;;;4959233;28;20031;-81
2021/03/24 12:59:01;;;;;;;0.70;0.32;;;21.20;45.60;;;;;;4966443;28;20034;-81
2021/03/24 13:01:55;;;;;;;2.85;1.35;;;21.10;45.80;;;;;;4948045;28;20039;-80
2021/03/24 13:04:51;;;;;;;2.85;0.50;;;21.20;45.90;;;;;;4954338;28;20035;-80
2021/03/24 13:07:39;;;;;;;1.13;0.43;;;21.30;45.70;;;;;;4969427;28;20047;-81
2021/03/24 13:10:46;;;;;;;1.23;0.50;;;21.40;45.60;;;;;;4971029;28;20034;-82
2021/03/24 13:13:34;;;;;;;1.38;0.40;;;21.50;45.40;;;;;;4955634;28;20027;-81
2021/03/24 13:16:03;;;;;;;7.68;0.68;;;21.50;45.30;;;;;;4951817;28;20058;-81
2021/03/24 13:18:40;;;;;;;1.95;0.50;;;21.50;45.50;;;;;;4956826;28;20470;-80
2021/03/24 13:21:44;;;;;;;6.35;0.40;;;21.50;45.50;;;;;;4951675;28;20053;-81
2021/03/24 13:24:26;;;;;;;3.97;0.63;;;21.60;45.40;;;;;;4969270;28;20053;-80
2021/03/24 13:26:58;;;;;;;1.65;0.32;;;21.60;45.50;;;;;;4960630;28;20027;-80
2021/03/24 13:29:46;;;;;;;1.17;0.50;;;21.60;45.50;;;;;;4966110;28;20027;-81
2021/03/24 13:32:31;;;;;;;0.30;0.25;;;21.60;45.60;;;;;;4944793;28;20042;-80
2021/03/24 13:35:26;;;;;;;4.78;0.63;;;21.60;45.60;;;;;;4954496;28;20043;-81
2021/03/24 13:37:52;;;;;;;0.93;0.47;;;21.70;45.60;;;;;;4930907;28;20039;-80
2021/03/24 13:40:20;;;;;;;0.93;0.38;;;21.60;45.60;;;;;;4950307;28;20069;-80
2021/03/24 13:43:08;;;;;;;2.72;0.30;;;21.60;45.60;;;;;;4965793;28;20030;-80